Time;durP1;ratioP1;P1;durP2;ratioP2;P2;SDS_P1;SDS_P2;PMS_P1;PMS_P2;Temp;Humidity;BMP_temperature;BMP_pressure;BME280_temperature;BME280_humidity;BME280_pressure;Samples;Min_cycle;Max_cycle;Signal;HPM_P1;HPM_P2
2023/05/30 00:01:21;;;;;;;17.30;3.13;;;;;;;14.30;44.15;100796.22;5030887;28;20140;-76
2023/05/30 00:03:48;;;;;;;16.38;3.05;;;;;;;14.29;44.20;100804.25;5029401;28;20060;-79
2023/05/30 00:06:16;;;;;;;17.75;3.05;;;;;;;14.28;44.08;100797.25;5029097;28;20046;-76
2023/05/30 00:08:43;;;;;;;16.45;2.80;;;;;;;14.26;44.40;100799.09;5030459;28;20107;-77
2023/05/30 00:11:13;;;;;;;10.35;2.70;;;;;;;14.25;44.44;100802.69;5030560;28;20051;-77
2023/05/30 00:13:42;;;;;;;16.58;3.20;;;;;;;14.21;45.00;100802.03;5030427;28;20057;-78
2023/05/30 00:16:10;;;;;;;10.90;2.83;;;;;;;14.20;44.43;100800.28;5028856;28;20469;-78
2023/05/30 00:18:38;;;;;;;16.75;3.05;;;;;;;14.19;44.66;100803.91;5029292;28;20049;-77
2023/05/30 00:21:05;;;;;;;14.77;3.10;;;;;;;14.18;45.07;100797.75;5030430;28;20041;-77
2023/05/30 00:23:35;;;;;;;13.38;3.30;;;;;;;14.16;44.90;100799.63;5029333;28;20045;-77
2023/05/30 00:26:03;;;;;;;14.10;3.55;;;;;;;14.17;45.03;100797.84;5029870;28;20419;-76
2023/05/30 00:28:30;;;;;;;15.77;3.28;;;;;;;14.15;45.08;100802.34;5029903;28;20467;-78
2023/05/30 00:30:57;;;;;;;15.98;2.85;;;;;;;14.14;44.96;100790.06;5030390;28;20084;-77
2023/05/30 00:33:24;;;;;;;12.43;3.03;;;;;;;14.14;45.01;100804.16;5030307;28;20625;-79
2023/05/30 00:35:50;;;;;;;11.13;2.75;;;;;;;14.12;45.12;100799.88;5030200;28;20045;-77
2023/05/30 00:38:17;;;;;;;13.30;2.88;;;;;;;14.13;45.24;100805.09;5029874;28;20061;-78
2023/05/30 00:40:44;;;;;;;14.48;3.38;;;;;;;14.11;45.44;100801.69;5030406;28;20049;-77
2023/05/30 00:43:11;;;;;;;12.07;2.80;;;;;;;14.12;45.25;100797.22;5029341;28;20053;-77
2023/05/30 00:45:39;;;;;;;15.38;3.53;;;;;;;14.10;45.74;100794.69;5030235;28;20064;-77
2023/05/30 00:48:05;;;;;;;12.55;3.50;;;;;;;14.10;45.54;100789.38;5029669;28;20469;-78
2023/05/30 00:50:33;;;;;;;11.18;2.70;;;;;;;14.07;45.79;100789.53;5030387;28;20045;-77
2023/05/30 00:53:00;;;;;;;13.68;2.90;;;;;;;14.07;45.68;100792.19;5029061;28;20088;-77
2023/05/30 00:55:27;;;;;;;13.15;3.15;;;;;;;14.05;45.72;100789.63;5030174;28;20095;-77
2023/05/30 00:57:55;;;;;;;10.57;3.15;;;;;;;14.05;45.83;100797.56;5028013;28;20046;-78
2023/05/30 01:00:24;;;;;;;8.18;2.53;;;;;;;14.05;46.12;100796.69;5029742;28;20049;-77
2023/05/30 01:02:51;;;;;;;15.77;3.25;;;;;;;14.05;46.08;100797.56;5029796;28;20636;-78
2023/05/30 01:05:19;;;;;;;14.07;2.83;;;;;;;14.05;45.89;100797.56;5029722;28;20084;-77
2023/05/30 01:07:46;;;;;;;15.88;3.25;;;;;;;14.05;46.06;100802.88;5029762;28;20057;-77
2023/05/30 01:10:13;;;;;;;14.70;2.97;;;;;;;14.05;46.28;100797.56;5030381;28;20057;-78
2023/05/30 01:13:08;;;;;;;15.48;3.40;;;;;;;14.02;47.17;100807.47;5029831;28;20061;-78
2023/05/30 01:15:42;;;;;;;15.45;3.72;;;;;;;14.03;47.16;100803.88;5013110;28;20042;-77
2023/05/30 01:18:27;;;;;;;16.58;3.95;;;;;;;14.02;47.43;100808.31;5013905;28;20542;-77
2023/05/30 01:20:59;;;;;;;13.70;3.33;;;;;;;14.05;46.95;100804.66;5019501;28;20453;-77
2023/05/30 01:23:44;;;;;;;15.43;3.25;;;;;;;14.03;47.20;100803.88;5032293;28;20041;-77
2023/05/30 01:26:42;;;;;;;16.25;3.35;;;;;;;14.05;46.94;100807.28;5033383;28;20084;-78
2023/05/30 01:29:17;;;;;;;14.50;3.33;;;;;;;14.10;47.10;100810.56;5033960;28;20103;-77
2023/05/30 01:31:45;;;;;;;14.52;3.33;;;;;;;14.12;46.46;100811.31;5033525;28;20046;-77
2023/05/30 01:34:13;;;;;;;13.05;2.97;;;;;;;14.13;46.53;100810.38;5033698;28;20111;-78
2023/05/30 01:36:40;;;;;;;13.50;3.45;;;;;;;14.15;46.68;100810.28;5032631;28;20552;-77
2023/05/30 01:39:07;;;;;;;15.50;3.83;;;;;;;14.15;47.02;100811.16;5033478;28;20127;-77
2023/05/30 01:41:41;;;;;;;15.52;3.17;;;;;;;14.14;47.86;100816.53;5033459;28;20053;-77
2023/05/30 01:44:30;;;;;;;9.13;3.33;;;;;;;14.14;47.62;100825.34;5033252;28;20049;-78
2023/05/30 01:47:14;;;;;;;9.32;3.30;;;;;;;14.16;47.75;100828.75;5033256;28;20061;-77
2023/05/30 01:50:06;;;;;;;11.63;2.70;;;;;;;14.16;47.41;100836.69;5033442;28;20103;-77
2023/05/30 01:52:39;;;;;;;11.45;3.10;;;;;;;14.20;47.59;100832.94;5032594;28;20132;-79
2023/05/30 01:55:08;;;;;;;;;;;;;;;14.20;45.84;100837.38;5031197;28;20406;-77
2023/05/30 01:57:46;;;;;;;14.18;3.40;;;;;;;14.21;47.66;100839.09;5032461;28;19925;-78
2023/05/30 02:00:14;;;;;;;12.52;2.85;;;;;;;14.22;46.68;100845.22;5033357;28;20132;-78
2023/05/30 02:02:44;;;;;;;9.82;3.13;;;;;;;14.19;47.91;100841.84;5032229;28;20061;-77
2023/05/30 02:05:11;;;;;;;12.93;3.70;;;;;;;14.22;46.99;100839.94;5031668;28;20053;-78
2023/05/30 02:07:38;;;;;;;13.55;2.83;;;;;;;14.23;47.03;100844.28;5032726;28;20569;-77
2023/05/30 02:10:05;;;;;;;16.08;3.00;;;;;;;14.23;47.42;100839.00;5032991;28;20045;-77
2023/05/30 02:12:32;;;;;;;12.45;2.92;;;;;;;14.25;47.67;100839.78;5032728;28;20495;-76
2023/05/30 02:14:59;;;;;;;12.20;2.75;;;;;;;14.27;47.54;100845.81;5032404;28;20518;-77
2023/05/30 02:17:26;;;;;;;9.48;2.70;;;;;;;14.29;47.19;100846.63;5032411;28;20556;-77
2023/05/30 02:19:53;;;;;;;13.38;3.13;;;;;;;14.31;47.39;100839.44;5032703;28;20107;-77
2023/05/30 02:22:20;;;;;;;9.27;2.78;;;;;;;14.30;47.46;100832.44;5031539;28;20054;-77
2023/05/30 02:24:47;;;;;;;9.15;3.15;;;;;;;14.31;47.27;100836.78;5032660;28;20053;-77
2023/05/30 02:27:14;;;;;;;13.75;3.30;;;;;;;14.30;47.29;100843.88;5031258;28;20053;-77
2023/05/30 02:29:41;;;;;;;17.10;3.92;;;;;;;14.29;47.21;100847.47;5032539;28;20446;-77
2023/05/30 02:32:07;;;;;;;11.73;3.50;;;;;;;14.28;47.50;100851.03;5031981;28;20144;-77
2023/05/30 02:34:35;;;;;;;15.82;3.63;;;;;;;14.27;47.39;100859.94;5031394;28;20076;-77
2023/05/30 02:37:01;;;;;;;8.70;3.40;;;;;;;14.26;47.48;100854.72;5031800;28;20056;-77
2023/05/30 02:39:28;;;;;;;8.63;2.67;;;;;;;14.24;47.67;100857.44;5031808;28;20053;-78
2023/05/30 02:41:54;;;;;;;13.18;3.72;;;;;;;14.23;47.97;100854.88;5030932;28;20581;-77
2023/05/30 02:44:21;;;;;;;12.90;3.35;;;;;;;14.24;47.92;100853.97;5032363;28;20144;-76
2023/05/30 02:46:48;;;;;;;10.32;2.90;;;;;;;14.23;47.78;100858.41;5031541;28;20072;-77
2023/05/30 02:49:14;;;;;;;14.27;3.67;;;;;;;14.24;48.01;100864.56;5032352;28;20140;-77
2023/05/30 02:51:42;;;;;;;14.95;3.38;;;;;;;14.24;48.08;100860.09;5030770;28;20053;-77
2023/05/30 02:54:08;;;;;;;13.60;3.47;;;;;;;14.26;47.93;100868.81;5032238;28;20053;-77
2023/05/30 02:56:35;;;;;;;12.00;2.90;;;;;;;14.28;47.98;100863.44;5031125;28;20057;-77
2023/05/30 02:59:02;;;;;;;8.48;2.80;;;;;;;14.30;47.95;100861.56;5032067;28;20050;-77
2023/05/30 03:01:28;;;;;;;8.23;2.75;;;;;;;14.31;48.05;100861.47;4820361;22;20502;-81
2023/05/30 03:03:55;;;;;;;10.90;2.95;;;;;;;14.32;47.92;100863.19;5031597;28;20049;-82
2023/05/30 03:06:24;;;;;;;13.85;3.08;;;;;;;14.32;47.81;100859.69;5025212;28;20545;-82
2023/05/30 03:08:59;;;;;;;12.25;3.22;;;;;;;14.28;48.73;100858.16;5013673;28;20057;-82
2023/05/30 03:11:26;;;;;;;12.43;2.90;;;;;;;14.29;47.96;100854.56;5030231;28;20136;-82
2023/05/30 03:13:53;;;;;;;12.40;3.28;;;;;;;14.27;48.01;100859.94;5031774;28;20168;-81
2023/05/30 03:16:20;;;;;;;12.27;3.35;;;;;;;14.26;47.88;100857.38;5031463;28;20104;-82
2023/05/30 03:18:49;;;;;;;11.07;3.42;;;;;;;14.24;47.97;100860.09;5031415;28;20080;-82
2023/05/30 03:21:16;;;;;;;13.90;3.10;;;;;;;14.22;47.84;100871.72;5025891;28;20410;-82
2023/05/30 03:23:42;;;;;;;8.93;3.20;;;;;;;14.20;48.32;100877.97;5021075;28;20041;-82
2023/05/30 03:26:09;;;;;;;13.30;3.17;;;;;;;14.19;48.53;100876.25;5027529;28;20541;-82
2023/05/30 03:28:36;;;;;;;13.85;3.28;;;;;;;14.18;48.36;100871.03;5031167;28;20054;-82
2023/05/30 03:31:03;;;;;;;9.50;3.17;;;;;;;14.19;48.42;100872.75;5031897;28;20045;-81
2023/05/30 03:33:30;;;;;;;13.25;3.25;;;;;;;14.19;48.61;100867.44;5026870;28;20521;-81
2023/05/30 03:35:57;;;;;;;9.13;3.30;;;;;;;14.20;48.61;100874.44;5030990;28;20387;-82
2023/05/30 03:38:23;;;;;;;11.05;3.22;;;;;;;14.20;48.58;100880.59;5030918;28;20461;-82
2023/05/30 03:40:50;;;;;;;10.52;3.20;;;;;;;14.21;48.60;100881.47;5014155;28;20053;-81
2023/05/30 03:43:17;;;;;;;9.32;3.05;;;;;;;14.22;48.65;100883.19;5029517;28;20049;-81
2023/05/30 03:45:43;;;;;;;13.63;3.55;;;;;;;14.23;48.74;100886.66;5030873;28;20045;-81
2023/05/30 03:48:10;;;;;;;13.70;3.40;;;;;;;14.24;48.70;100896.34;5031104;28;20116;-81
2023/05/30 03:50:37;;;;;;;13.13;3.60;;;;;;;14.23;48.59;100894.59;5030358;28;20494;-80
2023/05/30 03:53:03;;;;;;;12.90;3.70;;;;;;;14.23;48.48;100891.94;5011750;28;20046;-81
2023/05/30 03:55:30;;;;;;;15.77;3.35;;;;;;;14.22;48.91;100892.91;5011594;28;20104;-81
2023/05/30 03:57:57;;;;;;;11.52;3.97;;;;;;;14.22;48.77;100890.25;5011650;28;20517;-80
2023/05/30 04:00:24;;;;;;;10.30;3.17;;;;;;;14.21;48.68;100897.38;5011100;28;20053;-81
2023/05/30 04:02:50;;;;;;;12.20;3.47;;;;;;;14.21;49.00;100897.38;5011453;28;20053;-81
2023/05/30 04:05:18;;;;;;;10.50;3.35;;;;;;;14.22;49.27;100898.19;5017642;28;20045;-82
2023/05/30 04:07:45;;;;;;;13.18;3.67;;;;;;;14.23;49.19;100900.75;5024707;28;20048;-82
2023/05/30 04:10:11;;;;;;;9.57;3.28;;;;;;;14.26;49.36;100897.09;5011068;28;20092;-81
2023/05/30 04:12:38;;;;;;;12.52;3.40;;;;;;;14.29;49.18;100899.59;5023753;28;20049;-81
2023/05/30 04:15:05;;;;;;;10.38;3.42;;;;;;;14.31;49.15;100897.69;5029000;28;20612;-81
2023/05/30 04:17:32;;;;;;;21.00;3.90;;;;;;;14.32;48.99;100894.13;5014364;28;20491;-81
2023/05/30 04:19:58;;;;;;;21.80;3.85;;;;;;;14.33;48.94;100888.72;5011071;28;20046;-81
2023/05/30 04:22:25;;;;;;;12.50;3.13;;;;;;;14.33;49.00;100887.88;5025807;28;20053;-82
2023/05/30 04:24:52;;;;;;;6.95;3.05;;;;;;;14.33;49.11;100891.38;5029296;28;20053;-81
2023/05/30 04:27:19;;;;;;;7.82;3.13;;;;;;;14.34;49.20;100892.25;5028739;28;20095;-83
2023/05/30 04:29:48;;;;;;;10.93;3.28;;;;;;;14.36;49.16;100897.47;5030732;28;20049;-81
2023/05/30 04:32:16;;;;;;;12.57;4.40;;;;;;;14.37;49.03;100897.38;5016969;28;20077;-81
2023/05/30 04:34:43;;;;;;;10.82;3.25;;;;;;;14.40;49.12;100901.66;5009469;28;20570;-81
2023/05/30 04:37:11;;;;;;;8.98;3.47;;;;;;;14.42;49.35;100891.81;5011578;28;20042;-81
2023/05/30 04:39:38;;;;;;;10.18;3.30;;;;;;;14.44;49.35;100885.47;5009619;28;20053;-81
2023/05/30 04:42:05;;;;;;;9.90;3.53;;;;;;;14.46;49.28;100888.06;5011058;28;20136;-82
2023/05/30 04:44:37;;;;;;;9.70;3.60;;;;;;;14.48;49.58;100894.13;5010922;28;20054;-81
2023/05/30 04:47:07;;;;;;;13.55;3.28;;;;;;;14.52;49.68;100898.31;5011043;28;20455;-81
2023/05/30 04:49:39;;;;;;;13.40;3.83;;;;;;;14.58;49.57;100891.84;5010754;28;20104;-81
2023/05/30 04:52:07;;;;;;;11.70;3.43;;;;;;;14.62;49.51;100898.69;5027225;28;20049;-81
2023/05/30 04:54:34;;;;;;;14.38;3.75;;;;;;;14.67;49.56;100898.41;5034994;28;20065;-81
2023/05/30 04:57:02;;;;;;;10.43;3.22;;;;;;;14.70;49.30;100893.78;5032517;28;20056;-81
2023/05/30 04:59:29;;;;;;;13.13;3.60;;;;;;;14.73;49.28;100890.97;5034473;28;20062;-81
2023/05/30 05:01:56;;;;;;;8.45;3.88;;;;;;;14.77;49.44;100889.00;5032376;28;20073;-82
2023/05/30 05:04:23;;;;;;;10.02;3.33;;;;;;;14.81;49.27;100890.56;5034380;28;20413;-81
2023/05/30 05:06:50;;;;;;;10.13;3.17;;;;;;;14.85;49.22;100896.56;5023332;28;20422;-82
2023/05/30 05:09:16;;;;;;;10.30;3.30;;;;;;;14.89;49.34;100897.22;5014652;28;20100;-81
2023/05/30 05:11:43;;;;;;;8.57;3.45;;;;;;;14.93;49.07;100893.47;5015579;28;20045;-80
2023/05/30 05:14:10;;;;;;;10.32;3.38;;;;;;;14.97;48.87;100900.28;5014297;28;20054;-82
2023/05/30 05:16:36;;;;;;;14.50;3.63;;;;;;;14.98;48.93;100886.94;5023585;28;20453;-81
2023/05/30 05:19:03;;;;;;;9.10;2.97;;;;;;;15.03;48.63;100888.47;5033897;28;20045;-81
2023/05/30 05:21:30;;;;;;;11.77;4.10;;;;;;;15.07;48.63;100890.03;5030956;28;20089;-80
2023/05/30 05:23:56;;;;;;;11.48;3.03;;;;;;;15.09;48.60;100894.28;5033759;28;20107;-81
2023/05/30 05:26:23;;;;;;;8.07;3.38;;;;;;;15.12;48.51;100898.56;5027080;28;20050;-81
2023/05/30 05:28:51;;;;;;;9.57;2.95;;;;;;;15.14;48.43;100896.66;5013987;28;20057;-82
2023/05/30 05:31:18;;;;;;;8.25;3.40;;;;;;;15.17;48.50;100903.59;5013771;28;20145;-82
2023/05/30 05:33:44;;;;;;;9.30;2.72;;;;;;;15.20;48.40;100904.28;5013713;28;20097;-82
2023/05/30 05:36:11;;;;;;;8.38;3.00;;;;;;;15.21;48.46;100891.84;5013496;28;20065;-81
2023/05/30 05:38:38;;;;;;;9.10;3.20;;;;;;;15.22;48.44;100897.06;5012580;28;20526;-82
2023/05/30 05:41:05;;;;;;;8.10;2.83;;;;;;;15.25;48.48;100901.34;5017754;28;20052;-81
2023/05/30 05:43:31;;;;;;;13.48;3.63;;;;;;;15.29;48.35;100912.63;5030816;28;20057;-81
2023/05/30 05:45:58;;;;;;;10.52;3.20;;;;;;;15.31;48.31;100918.69;5031956;28;20046;-81
2023/05/30 05:48:25;;;;;;;10.38;3.33;;;;;;;15.34;48.21;100921.19;5030928;28;20315;-81
2023/05/30 05:50:52;;;;;;;14.35;2.72;;;;;;;15.36;48.38;100921.94;5032824;28;20061;-81
2023/05/30 05:53:18;;;;;;;9.20;2.85;;;;;;;15.40;48.33;100917.31;5023963;28;20458;-81
2023/05/30 05:55:45;;;;;;;15.15;3.78;;;;;;;15.44;48.20;100927.63;5012256;28;20496;-80
2023/05/30 05:58:12;;;;;;;14.38;3.28;;;;;;;15.48;47.94;100931.00;5013343;28;20453;-81
2023/05/30 06:00:39;;;;;;;9.52;2.90;;;;;;;15.50;47.99;100929.94;5013451;28;20168;-81
2023/05/30 06:03:06;;;;;;;9.32;3.05;;;;;;;15.54;48.12;100937.72;5033166;28;20075;-81
2023/05/30 06:05:34;;;;;;;11.63;3.33;;;;;;;15.55;47.75;100932.31;5031184;28;20144;-81
2023/05/30 06:08:01;;;;;;;12.75;3.53;;;;;;;15.57;47.84;100932.22;5021002;28;20514;-81
2023/05/30 06:10:28;;;;;;;9.35;3.03;;;;;;;15.60;47.92;100937.34;5019268;28;20512;-81
2023/05/30 06:12:55;;;;;;;8.68;3.40;;;;;;;15.63;48.04;100923.91;5032965;28;20053;-81
2023/05/30 06:15:21;;;;;;;10.77;3.00;;;;;;;15.66;48.06;100928.19;5029891;28;20085;-81
2023/05/30 06:17:48;;;;;;;11.32;3.47;;;;;;;15.70;48.13;100927.06;5013879;28;20100;-81
2023/05/30 06:20:14;;;;;;;12.00;3.30;;;;;;;15.74;48.32;100920.63;5013135;28;20062;-81
2023/05/30 06:22:41;;;;;;;7.30;2.88;;;;;;;15.81;48.32;100926.41;5030791;28;20049;-80
2023/05/30 06:25:08;;;;;;;9.45;3.13;;;;;;;15.86;48.05;100926.97;5030877;28;20041;-80
2023/05/30 06:27:35;;;;;;;8.32;2.88;;;;;;;15.92;48.02;100923.94;5030352;28;20053;-80
2023/05/30 06:30:02;;;;;;;9.30;3.30;;;;;;;15.99;48.10;100927.97;5012791;28;20057;-81
2023/05/30 06:32:28;;;;;;;9.73;3.05;;;;;;;16.05;47.75;100929.41;5012891;28;20164;-80
2023/05/30 06:34:55;;;;;;;9.63;3.17;;;;;;;16.13;47.51;100927.13;5012316;28;20503;-80
2023/05/30 06:37:21;;;;;;;9.77;3.03;;;;;;;16.18;47.42;100934.78;5013576;28;20050;-80
2023/05/30 06:39:48;;;;;;;12.93;3.67;;;;;;;16.22;47.34;100933.66;5012621;28;20054;-80
2023/05/30 06:42:15;;;;;;;11.52;3.33;;;;;;;16.26;47.47;100937.84;5026989;28;20499;-80
2023/05/30 06:44:41;;;;;;;7.95;3.28;;;;;;;16.30;47.30;100929.69;5032140;28;20077;-81
2023/05/30 06:47:08;;;;;;;7.20;2.88;;;;;;;16.35;47.13;100933.75;5030550;28;20558;-80
2023/05/30 06:49:35;;;;;;;11.52;3.75;;;;;;;16.40;47.09;100936.13;5032417;28;20570;-80
2023/05/30 06:52:02;;;;;;;12.02;3.45;;;;;;;16.45;47.09;100941.16;5012557;28;20129;-80
2023/05/30 06:54:29;;;;;;;12.05;3.50;;;;;;;16.47;47.00;100948.06;5022045;28;20548;-80
2023/05/30 06:57:02;;;;;;;10.50;3.42;;;;;;;16.49;47.09;100946.16;5011917;28;20072;-81
2023/05/30 06:59:30;;;;;;;9.20;3.50;;;;;;;16.53;46.97;100945.03;5011886;28;20057;-80
2023/05/30 07:01:57;;;;;;;13.90;3.33;;;;;;;16.57;46.77;100940.38;5010331;28;20050;-80
2023/05/30 07:04:24;;;;;;;14.88;3.40;;;;;;;16.61;47.02;100944.56;5021948;28;20469;-80
2023/05/30 07:06:50;;;;;;;13.18;3.40;;;;;;;16.65;46.94;100937.22;5016450;28;20572;-81
2023/05/30 07:09:17;;;;;;;11.38;3.65;;;;;;;16.68;46.94;100932.56;5010967;28;20510;-80
2023/05/30 07:11:44;;;;;;;8.48;3.22;;;;;;;16.70;46.61;100932.47;5010977;28;20065;-80
2023/05/30 07:14:13;;;;;;;11.30;2.97;;;;;;;16.74;46.96;100933.97;5016054;28;20136;-80
2023/05/30 07:16:40;;;;;;;14.88;3.65;;;;;;;16.79;46.67;100939.84;5029888;28;20099;-80
2023/05/30 07:19:06;;;;;;;12.93;3.38;;;;;;;16.84;46.98;100944.00;5031594;28;20050;-80
2023/05/30 07:21:39;;;;;;;14.95;3.13;;;;;;;16.88;46.89;100940.19;5031840;28;20050;-80
2023/05/30 07:24:05;;;;;;;14.20;3.60;;;;;;;16.93;46.89;100936.31;5028488;28;20061;-80
2023/05/30 07:26:33;;;;;;;11.30;3.00;;;;;;;16.98;46.86;100930.69;5011748;28;20479;-80
2023/05/30 07:29:00;;;;;;;9.20;3.13;;;;;;;17.04;46.48;100932.06;5011947;28;20077;-80
2023/05/30 07:31:27;;;;;;;9.27;3.20;;;;;;;17.12;46.46;100939.59;5011802;28;20446;-80
2023/05/30 07:33:53;;;;;;;8.63;3.63;;;;;;;17.18;46.45;100940.06;5010610;28;20050;-80
2023/05/30 07:36:20;;;;;;;6.57;2.88;;;;;;;17.24;46.38;100946.78;5023753;28;20088;-81
2023/05/30 07:38:47;;;;;;;7.70;3.25;;;;;;;17.30;46.08;100945.50;5018694;28;20574;-80
2023/05/30 07:41:14;;;;;;;10.00;3.05;;;;;;;17.35;46.22;100950.53;5031499;28;20061;-80
2023/05/30 07:43:41;;;;;;;9.93;3.55;;;;;;;17.40;46.40;100940.41;5031431;28;20099;-80
2023/05/30 07:46:07;;;;;;;10.93;3.55;;;;;;;17.45;46.22;100947.13;5018259;28;20598;-80
2023/05/30 07:48:34;;;;;;;9.38;2.97;;;;;;;17.53;46.65;100938.63;5011589;28;20073;-80
2023/05/30 07:51:01;;;;;;;9.23;3.72;;;;;;;17.61;46.50;100940.78;5011486;28;20050;-80
2023/05/30 07:53:27;;;;;;;11.52;3.50;;;;;;;17.69;46.30;100937.59;5011304;28;20506;-80
2023/05/30 07:55:54;;;;;;;10.38;3.03;;;;;;;17.76;46.08;100938.03;5019309;28;20057;-80
2023/05/30 07:58:22;;;;;;;10.32;3.10;;;;;;;17.81;45.84;100930.56;5031210;28;20057;-80
2023/05/30 08:00:49;;;;;;;7.65;2.40;;;;;;;17.89;45.71;100935.34;5030918;28;20107;-80
2023/05/30 08:03:15;;;;;;;7.00;2.80;;;;;;;17.94;45.52;100941.25;5031087;28;20050;-80
2023/05/30 08:05:42;;;;;;;8.30;2.90;;;;;;;17.99;45.67;100933.78;5026848;28;20046;-80
2023/05/30 08:08:09;;;;;;;9.18;3.42;;;;;;;18.02;45.30;100938.88;5010920;28;20061;-81
2023/05/30 08:10:35;;;;;;;9.27;2.90;;;;;;;18.05;45.34;100932.50;5011227;28;20092;-80
2023/05/30 08:13:02;;;;;;;7.82;2.90;;;;;;;18.08;45.69;100932.31;5009865;28;20166;-80
2023/05/30 08:15:28;;;;;;;9.48;3.28;;;;;;;18.14;45.69;100936.34;5010990;28;20049;-80
2023/05/30 08:17:56;;;;;;;8.13;2.90;;;;;;;18.17;45.39;100936.97;5030020;28;20415;-80
2023/05/30 08:20:24;;;;;;;7.47;3.25;;;;;;;18.23;45.39;100941.91;5029301;28;20445;-80
2023/05/30 08:22:51;;;;;;;11.52;3.53;;;;;;;18.31;45.70;100946.66;5030471;28;20045;-81
2023/05/30 08:25:23;;;;;;;9.85;3.72;;;;;;;18.38;46.07;100939.09;5029742;28;20140;-80
2023/05/30 08:27:53;;;;;;;10.53;2.87;;;;;;;18.49;45.53;100941.00;5014407;28;20474;-81
2023/05/30 08:30:19;;;;;;;8.23;3.45;;;;;;;18.58;45.25;100939.50;5010927;28;20072;-81
2023/05/30 08:32:46;;;;;;;7.15;2.80;;;;;;;18.66;45.16;100941.59;5010937;28;20045;-81
2023/05/30 08:35:13;;;;;;;11.07;3.42;;;;;;;18.73;45.08;100942.88;5010631;28;20092;-80
2023/05/30 08:37:41;;;;;;;8.20;3.30;;;;;;;18.80;44.97;100949.44;5022353;28;20053;-80
2023/05/30 08:40:12;;;;;;;9.75;3.15;;;;;;;18.87;45.35;100947.16;5029216;28;20060;-80
2023/05/30 08:42:40;;;;;;;7.10;3.10;;;;;;;18.99;45.96;100945.44;5029201;28;20466;-80
2023/05/30 08:45:07;;;;;;;8.00;3.28;;;;;;;19.11;45.35;100939.19;5030269;28;20096;-80
2023/05/30 08:47:35;;;;;;;8.70;3.70;;;;;;;19.24;44.87;100940.94;5022478;28;20081;-80
2023/05/30 08:50:09;;;;;;;9.80;3.13;;;;;;;19.35;45.07;100941.00;5010576;28;20093;-80
2023/05/30 08:52:38;;;;;;;8.88;3.17;;;;;;;19.47;45.14;100935.72;5010816;28;20057;-80
2023/05/30 08:55:14;;;;;;;10.98;3.72;;;;;;;19.55;44.36;100943.97;5010608;28;20049;-80
2023/05/30 08:57:50;;;;;;;6.72;2.90;;;;;;;19.61;44.52;100942.66;5016249;28;20046;-80
2023/05/30 09:03:05;;;;;;;6.65;3.15;;;;;;;19.67;43.81;100939.53;5060990;22;20081;-79
2023/05/30 09:05:34;;;;;;;8.35;3.13;;;;;;;19.70;43.75;100941.94;5010365;28;20054;-77
2023/05/30 09:08:05;;;;;;;11.50;3.15;;;;;;;19.71;44.47;100940.13;5010263;28;20388;-77
2023/05/30 09:10:32;;;;;;;7.78;3.05;;;;;;;19.78;43.79;100944.03;5010524;28;20045;-77
2023/05/30 09:12:59;;;;;;;7.57;3.45;;;;;;;19.85;43.88;100936.41;4992693;28;20391;-77
2023/05/30 09:15:26;;;;;;;7.50;3.20;;;;;;;19.90;43.56;100927.06;5010226;28;20069;-77
2023/05/30 09:17:54;;;;;;;7.82;2.90;;;;;;;19.96;43.54;100941.75;5010235;28;20093;-77
2023/05/30 09:20:22;;;;;;;12.45;3.60;;;;;;;20.01;43.74;100936.09;5010218;28;20136;-77
2023/05/30 09:22:50;;;;;;;10.43;3.28;;;;;;;20.03;44.02;100934.13;5009993;28;20521;-78
2023/05/30 09:25:16;;;;;;;9.48;3.28;;;;;;;20.10;43.83;100938.03;5009995;28;20426;-77
2023/05/30 09:27:48;;;;;;;8.57;3.35;;;;;;;20.16;43.28;100929.53;5010282;28;20443;-77
2023/05/30 09:30:15;;;;;;;5.68;3.33;;;;;;;20.24;43.37;100926.25;5010473;28;20420;-77
2023/05/30 09:32:42;;;;;;;8.68;3.97;;;;;;;20.29;42.91;100923.19;5010154;28;20054;-76
2023/05/30 09:35:10;;;;;;;14.45;4.18;;;;;;;20.30;43.43;100928.41;5010380;28;20492;-77
2023/05/30 09:37:38;;;;;;;8.25;3.20;;;;;;;20.31;43.29;100930.13;5013682;28;20173;-77
2023/05/30 09:40:09;;;;;;;8.05;3.90;;;;;;;20.31;43.30;100931.97;5013595;28;20053;-78
2023/05/30 09:42:44;;;;;;;9.75;4.10;;;;;;;20.30;43.71;100931.09;4996087;28;20054;-77
2023/05/30 09:45:13;;;;;;;10.32;3.58;;;;;;;20.36;43.25;100926.22;5013858;28;20111;-77
2023/05/30 09:47:44;;;;;;;8.68;4.18;;;;;;;20.40;43.33;100928.53;4996004;28;20411;-78
2023/05/30 09:50:17;;;;;;;7.90;3.95;;;;;;;20.49;43.62;100926.09;5013578;28;20646;-77
2023/05/30 09:52:45;;;;;;;9.40;4.35;;;;;;;20.60;43.86;100933.25;5013612;28;20133;-77
2023/05/30 09:55:13;;;;;;;7.10;4.10;;;;;;;20.66;43.57;100925.59;5013407;28;20054;-78
2023/05/30 09:57:45;;;;;;;8.73;4.00;;;;;;;20.74;43.45;100918.78;4980181;28;20042;-77
2023/05/30 10:00:15;;;;;;;10.55;4.00;;;;;;;20.80;43.29;100920.94;5013295;28;20133;-78
2023/05/30 10:02:51;;;;;;;7.30;3.67;;;;;;;20.86;43.20;100923.09;5013543;28;20118;-77
2023/05/30 10:05:19;;;;;;;12.25;3.95;;;;;;;20.94;43.26;100914.47;5013400;28;20056;-76
2023/05/30 10:07:51;;;;;;;11.38;4.03;;;;;;;20.98;42.95;100915.06;5013300;28;20054;-77
2023/05/30 10:10:18;;;;;;;7.53;3.45;;;;;;;21.05;42.90;100927.81;5013454;28;20061;-76
2023/05/30 10:12:54;;;;;;;8.07;3.38;;;;;;;21.11;42.97;100922.94;5012860;28;20534;-77
2023/05/30 10:15:21;;;;;;;9.18;3.42;;;;;;;21.17;43.48;100931.31;5012997;28;20132;-76
2023/05/30 10:18:09;;;;;;;9.00;3.65;;;;;;;21.21;44.17;100929.22;5012940;28;20483;-77
2023/05/30 10:20:39;;;;;;;8.27;3.53;;;;;;;21.33;43.56;100938.91;5013027;28;20104;-78
2023/05/30 10:23:07;;;;;;;7.57;3.50;;;;;;;21.43;43.62;100930.94;4995212;28;20522;-77
2023/05/30 10:25:44;;;;;;;10.63;3.53;;;;;;;21.52;43.75;100934.66;5012387;28;20430;-77
2023/05/30 10:28:18;;;;;;;10.13;3.78;;;;;;;21.64;43.75;100930.06;5012503;28;20045;-78
2023/05/30 10:30:47;;;;;;;8.10;3.45;;;;;;;21.75;43.70;100923.81;4995688;28;20046;-77
2023/05/30 10:33:14;;;;;;;7.38;3.28;;;;;;;21.85;43.23;100923.88;5012941;28;20057;-78
2023/05/30 10:35:42;;;;;;;6.50;3.50;;;;;;;21.96;43.29;100921.13;5012306;28;20074;-77
2023/05/30 10:38:13;;;;;;;7.72;3.58;;;;;;;22.12;43.26;100928.69;5012231;28;20132;-77
2023/05/30 10:41:00;;;;;;;6.68;3.60;;;;;;;22.31;43.14;100926.22;5012925;28;20053;-77
2023/05/30 10:43:36;;;;;;;7.53;3.40;;;;;;;22.60;44.39;100922.78;5012719;28;20075;-78
2023/05/30 10:46:08;;;;;;;12.07;3.80;;;;;;;22.95;43.22;100917.91;5012156;28;20052;-78
2023/05/30 10:48:38;;;;;;;;;;;;;;;23.32;42.88;100913.66;5011743;28;20054;-78
2023/05/30 10:51:05;;;;;;;7.15;2.95;;;;;;;23.84;42.46;100915.97;5012753;28;19926;-78
2023/05/30 10:53:39;;;;;;;7.15;3.05;;;;;;;24.27;41.78;100916.41;4994868;28;20050;-78
2023/05/30 10:56:26;;;;;;;5.93;2.88;;;;;;;24.78;41.55;100918.63;5011967;28;20088;-79
2023/05/30 10:58:53;;;;;;;6.18;2.90;;;;;;;25.31;41.26;100916.09;4994198;28;20438;-78
2023/05/30 11:01:24;;;;;;;7.10;2.85;;;;;;;25.79;39.27;100907.69;5012005;28;20099;-79
2023/05/30 11:04:13;;;;;;;5.00;2.60;;;;;;;26.17;38.35;100915.47;5012550;28;20054;-79
2023/05/30 11:06:45;;;;;;;4.40;2.40;;;;;;;26.38;37.09;100914.22;5011540;28;20495;-78
2023/05/30 11:09:16;;;;;;;6.43;2.70;;;;;;;26.49;37.31;100908.53;5012213;28;20060;-77
2023/05/30 11:11:54;;;;;;;4.22;2.40;;;;;;;26.61;38.00;100911.75;5012032;28;20054;-77
2023/05/30 11:14:40;;;;;;;8.15;2.53;;;;;;;26.78;37.66;100903.69;5011742;28;20088;-78
2023/05/30 11:17:08;;;;;;;5.13;2.55;;;;;;;27.06;38.57;100898.03;5011434;28;20061;-78
2023/05/30 11:19:43;;;;;;;7.13;2.67;;;;;;;27.26;37.63;100897.66;5011951;28;20093;-78
2023/05/30 11:22:15;;;;;;;4.63;2.42;;;;;;;27.48;37.21;100900.69;4994397;28;20069;-78
2023/05/30 11:24:43;;;;;;;4.65;2.40;;;;;;;27.60;36.30;100901.16;5012094;28;20046;-78
2023/05/30 11:27:16;;;;;;;6.50;2.60;;;;;;;27.58;35.07;100899.47;5011548;28;20105;-78
2023/05/30 11:29:53;;;;;;;5.47;2.45;;;;;;;27.51;35.25;100898.47;5011764;28;20046;-77
2023/05/30 11:32:28;;;;;;;5.18;2.30;;;;;;;27.41;34.82;100893.25;4994206;28;20606;-78